sensor_id;sensor_type;location;lat;lon;timestamp;pressure;altitude;pressure_sealevel;temperature;humidity
8477;BME280;4275;42.854;23.222;2023-08-21T00:01:45;41672.78;;;-141.02;74.18
8477;BME280;4275;42.854;23.222;2023-08-21T00:04:12;41707.31;;;-141.02;74.86
8477;BME280;4275;42.854;23.222;2023-08-21T00:06:39;41703.47;;;-141.02;75.35
8477;BME280;4275;42.854;23.222;2023-08-21T00:09:06;41722.66;;;-141.02;75.41
8477;BME280;4275;42.854;23.222;2023-08-21T00:11:32;41726.50;;;-141.02;77.16
8477;BME280;4275;42.854;23.222;2023-08-21T00:14:01;41745.69;;;-141.02;79.08
8477;BME280;4275;42.854;23.222;2023-08-21T00:16:28;41734.19;;;-141.02;78.27
8477;BME280;4275;42.854;23.222;2023-08-21T00:18:55;41722.66;;;-141.02;78.28
8477;BME280;4275;42.854;23.222;2023-08-21T00:21:22;41709.22;;;-141.02;79.48
8477;BME280;4275;42.854;23.222;2023-08-21T00:27:11;41715.00;;;-141.02;78.71
8477;BME280;4275;42.854;23.222;2023-08-21T00:29:39;41764.88;;;-141.02;80.22
8477;BME280;4275;42.854;23.222;2023-08-21T00:32:06;41739.94;;;-141.02;80.89
8477;BME280;4275;42.854;23.222;2023-08-21T00:34:34;41757.22;;;-141.02;81.71
8477;BME280;4275;42.854;23.222;2023-08-21T00:37:01;41772.56;;;-141.02;82.18
8477;BME280;4275;42.854;23.222;2023-08-21T00:39:28;41770.66;;;-141.02;81.94
8477;BME280;4275;42.854;23.222;2023-08-21T00:41:55;41747.63;;;-141.02;81.41
8477;BME280;4275;42.854;23.222;2023-08-21T00:44:22;41772.56;;;-141.02;81.33
8477;BME280;4275;42.854;23.222;2023-08-21T00:46:50;41770.66;;;-141.02;81.89
8477;BME280;4275;42.854;23.222;2023-08-21T00:49:17;41749.53;;;-141.02;82.60
8477;BME280;4275;42.854;23.222;2023-08-21T00:51:44;41772.56;;;-141.02;83.20
8477;BME280;4275;42.854;23.222;2023-08-21T00:54:11;41772.56;;;-141.02;83.51
8477;BME280;4275;42.854;23.222;2023-08-21T00:56:38;41749.53;;;-141.02;84.34
8477;BME280;4275;42.854;23.222;2023-08-21T00:59:06;41772.56;;;-141.02;85.38
8477;BME280;4275;42.854;23.222;2023-08-21T01:01:34;41757.22;;;-141.02;86.38
8477;BME280;4275;42.854;23.222;2023-08-21T01:10:45;41711.16;;;-141.02;86.86
8477;BME280;4275;42.854;23.222;2023-08-21T01:13:24;41724.59;;;-141.02;85.88
8477;BME280;4275;42.854;23.222;2023-08-21T01:15:55;41741.84;;;-141.02;86.57
8477;BME280;4275;42.854;23.222;2023-08-21T01:18:24;41711.16;;;-141.02;86.51
8477;BME280;4275;42.854;23.222;2023-08-21T01:20:52;41695.81;;;-141.02;87.14
8477;BME280;4275;42.854;23.222;2023-08-21T01:23:32;41745.69;;;-141.02;86.31
8477;BME280;4275;42.854;23.222;2023-08-21T01:25:58;41709.22;;;-141.02;86.95
8477;BME280;4275;42.854;23.222;2023-08-21T01:28:26;41690.03;;;-141.02;87.73
8477;BME280;4275;42.854;23.222;2023-08-21T01:31:00;41730.34;;;-141.02;88.17
8477;BME280;4275;42.854;23.222;2023-08-21T01:33:30;41680.44;;;-141.02;89.30
8477;BME280;4275;42.854;23.222;2023-08-21T01:39:23;41572.97;;;-141.02;92.72
8477;BME280;4275;42.854;23.222;2023-08-21T01:41:50;41549.94;;;-141.02;93.76
8477;BME280;4275;42.854;23.222;2023-08-21T01:44:17;41501.97;;;-141.02;93.72
8477;BME280;4275;42.854;23.222;2023-08-21T01:53:52;41446.31;;;-141.02;92.68
8477;BME280;4275;42.854;23.222;2023-08-21T01:56:20;41430.97;;;-141.02;93.76
8477;BME280;4275;42.854;23.222;2023-08-21T01:58:49;41396.44;;;-141.02;95.29
8477;BME280;4275;42.854;23.222;2023-08-21T02:01:15;41386.84;;;-141.02;95.51
8477;BME280;4275;42.854;23.222;2023-08-21T02:03:43;41346.53;;;-141.02;97.05
8477;BME280;4275;42.854;23.222;2023-08-21T02:09:45;41204.53;;;-141.02;98.48
8477;BME280;4275;42.854;23.222;2023-08-21T02:16:15;41135.47;;;-141.02;98.88
8477;BME280;4275;42.854;23.222;2023-08-21T02:22:12;41039.53;;;-141.02;100.00
8477;BME280;4275;42.854;23.222;2023-08-21T02:24:39;40987.72;;;-141.02;100.00
8477;BME280;4275;42.854;23.222;2023-08-21T02:27:05;40960.88;;;-141.02;100.00
8477;BME280;4275;42.854;23.222;2023-08-21T02:29:32;40958.94;;;-141.02;100.00
8477;BME280;4275;42.854;23.222;2023-08-21T02:32:23;40939.75;;;-141.02;100.00
8477;BME280;4275;42.854;23.222;2023-08-21T02:38:42;40866.84;;;-141.02;100.00
8477;BME280;4275;42.854;23.222;2023-08-21T02:41:23;40843.81;;;-141.02;100.00
8477;BME280;4275;42.854;23.222;2023-08-21T02:47:11;40774.75;;;-141.02;100.00
8477;BME280;4275;42.854;23.222;2023-08-21T02:49:39;40724.88;;;-141.02;100.00
8477;BME280;4275;42.854;23.222;2023-08-21T02:52:07;40744.06;;;-141.02;100.00
8477;BME280;4275;42.854;23.222;2023-08-21T02:54:34;40778.59;;;-141.02;100.00
8477;BME280;4275;42.854;23.222;2023-08-21T02:57:01;40767.09;;;-141.02;100.00
8477;BME280;4275;42.854;23.222;2023-08-21T02:59:28;40728.72;;;-141.02;100.00
8477;BME280;4275;42.854;23.222;2023-08-21T03:09:15;40713.38;;;-141.02;100.00
8477;BME280;4275;42.854;23.222;2023-08-21T03:11:42;40669.25;;;-141.02;100.00
8477;BME280;4275;42.854;23.222;2023-08-21T03:14:09;40632.78;;;-141.02;100.00
8477;BME280;4275;42.854;23.222;2023-08-21T03:16:36;40621.28;;;-141.02;100.00
8477;BME280;4275;42.854;23.222;2023-08-21T03:19:03;40644.28;;;-141.02;100.00
8477;BME280;4275;42.854;23.222;2023-08-21T03:21:30;40651.97;;;-141.02;100.00
8477;BME280;4275;42.854;23.222;2023-08-21T03:23:58;40655.81;;;-141.02;100.00
8477;BME280;4275;42.854;23.222;2023-08-21T03:26:27;40698.00;;;-141.02;100.00
8477;BME280;4275;42.854;23.222;2023-08-21T03:28:53;40717.19;;;-141.02;100.00
8477;BME280;4275;42.854;23.222;2023-08-21T03:31:20;40757.50;;;-141.02;100.00
8477;BME280;4275;42.854;23.222;2023-08-21T03:33:47;40805.47;;;-141.02;100.00
8477;BME280;4275;42.854;23.222;2023-08-21T03:36:14;40886.03;;;-141.02;100.00
8477;BME280;4275;42.854;23.222;2023-08-21T03:38:41;41001.16;;;-141.02;100.00
8477;BME280;4275;42.854;23.222;2023-08-21T03:41:08;41062.56;;;-141.02;100.00
8477;BME280;4275;42.854;23.222;2023-08-21T03:43:37;41196.88;;;-141.02;100.00
8477;BME280;4275;42.854;23.222;2023-08-21T03:49:17;41333.09;;;-141.02;100.00
8477;BME280;4275;42.854;23.222;2023-08-21T03:51:44;41338.88;;;-141.02;100.00
8477;BME280;4275;42.854;23.222;2023-08-21T03:54:11;41400.28;;;-141.02;100.00
8477;BME280;4275;42.854;23.222;2023-08-21T03:56:38;41430.97;;;-141.02;100.00
8477;BME280;4275;42.854;23.222;2023-08-21T03:59:07;41465.50;;;-141.02;100.00
8477;BME280;4275;42.854;23.222;2023-08-21T04:01:33;41473.19;;;-141.02;100.00
8477;BME280;4275;42.854;23.222;2023-08-21T04:04:00;41511.56;;;-141.02;100.00
8477;BME280;4275;42.854;23.222;2023-08-21T04:06:27;41611.34;;;-141.02;100.00
8477;BME280;4275;42.854;23.222;2023-08-21T04:08:54;41789.84;;;-141.02;100.00
8477;BME280;4275;42.854;23.222;2023-08-21T04:11:21;41887.72;;;-141.02;100.00
8477;BME280;4275;42.854;23.222;2023-08-21T04:13:48;41914.59;;;-141.02;100.00
8477;BME280;4275;42.854;23.222;2023-08-21T04:16:16;41958.72;;;-141.02;98.06
8477;BME280;4275;42.854;23.222;2023-08-21T04:18:44;42010.53;;;-141.02;97.18
8477;BME280;4275;42.854;23.222;2023-08-21T04:21:11;42064.28;;;-141.02;96.31
8477;BME280;4275;42.854;23.222;2023-08-21T04:23:37;42056.59;;;-141.02;95.58
8477;BME280;4275;42.854;23.222;2023-08-21T04:26:04;42098.84;;;-141.02;94.66
8477;BME280;4275;42.854;23.222;2023-08-21T04:28:32;42141.06;;;-141.02;93.05
8477;BME280;4275;42.854;23.222;2023-08-21T04:30:59;42141.06;;;-141.02;92.63
8477;BME280;4275;42.854;23.222;2023-08-21T04:33:28;42183.28;;;-141.02;91.96
8477;BME280;4275;42.854;23.222;2023-08-21T04:35:55;42206.31;;;-141.02;90.27
8477;BME280;4275;42.854;23.222;2023-08-21T04:38:22;42267.75;;;-141.02;89.27
8477;BME280;4275;42.854;23.222;2023-08-21T04:40:49;42256.22;;;-141.02;88.36
8477;BME280;4275;42.854;23.222;2023-08-21T04:43:16;42302.28;;;-141.02;87.27
8477;BME280;4275;42.854;23.222;2023-08-21T04:45:47;42313.81;;;-141.02;86.43
8477;BME280;4275;42.854;23.222;2023-08-21T04:48:15;42363.72;;;-141.02;84.95
8477;BME280;4275;42.854;23.222;2023-08-21T04:50:43;42371.38;;;-141.02;83.93
8477;BME280;4275;42.854;23.222;2023-08-21T04:53:10;42404.03;;;-141.02;81.64
8477;BME280;4275;42.854;23.222;2023-08-21T04:55:38;42421.28;;;-141.02;81.96
8477;BME280;4275;42.854;23.222;2023-08-21T04:58:07;42448.16;;;-141.02;82.35
8477;BME280;4275;42.854;23.222;2023-08-21T05:00:34;42467.38;;;-141.02;79.64
8477;BME280;4275;42.854;23.222;2023-08-21T05:03:00;42484.63;;;-141.02;79.02
8477;BME280;4275;42.854;23.222;2023-08-21T05:05:27;42490.41;;;-141.02;77.63
8477;BME280;4275;42.854;23.222;2023-08-21T05:07:56;42513.44;;;-141.02;75.94
8477;BME280;4275;42.854;23.222;2023-08-21T05:10:23;42536.47;;;-141.02;75.10
8477;BME280;4275;42.854;23.222;2023-08-21T05:12:50;42536.47;;;-141.02;75.58
8477;BME280;4275;42.854;23.222;2023-08-21T05:15:17;42549.91;;;-141.02;77.22
8477;BME280;4275;42.854;23.222;2023-08-21T05:17:43;42532.63;;;-141.02;78.41
8477;BME280;4275;42.854;23.222;2023-08-21T05:20:11;42563.34;;;-141.02;79.35
8477;BME280;4275;42.854;23.222;2023-08-21T05:22:40;42546.06;;;-141.02;79.61
8477;BME280;4275;42.854;23.222;2023-08-21T05:25:10;42559.50;;;-141.02;79.24
8477;BME280;4275;42.854;23.222;2023-08-21T05:27:37;42555.66;;;-141.02;79.39
8477;BME280;4275;42.854;23.222;2023-08-21T05:30:05;42513.44;;;-141.02;79.45
8477;BME280;4275;42.854;23.222;2023-08-21T05:32:32;42505.75;;;-141.02;79.12
8477;BME280;4275;42.854;23.222;2023-08-21T05:34:59;42494.25;;;-141.02;78.34
8477;BME280;4275;42.854;23.222;2023-08-21T05:37:26;42526.88;;;-141.02;79.28
8477;BME280;4275;42.854;23.222;2023-08-21T05:39:53;42114.19;;;-141.02;78.48
8477;BME280;4275;42.854;23.222;2023-08-21T05:42:21;42548.00;;;-141.02;78.63
8477;BME280;4275;42.854;23.222;2023-08-21T05:44:48;42567.19;;;-141.02;78.37
8477;BME280;4275;42.854;23.222;2023-08-21T05:47:15;42574.88;;;-141.02;76.62
8477;BME280;4275;42.854;23.222;2023-08-21T05:49:42;42578.69;;;-141.02;76.51
8477;BME280;4275;42.854;23.222;2023-08-21T05:52:09;42586.38;;;-141.02;76.75
8477;BME280;4275;42.854;23.222;2023-08-21T05:54:36;42617.09;;;-141.02;77.60
8477;BME280;4275;42.854;23.222;2023-08-21T05:57:03;42597.91;;;-141.02;77.61
8477;BME280;4275;42.854;23.222;2023-08-21T05:59:32;42569.09;;;-141.02;75.97
8477;BME280;4275;42.854;23.222;2023-08-21T06:01:59;42590.22;;;-141.02;74.78
8477;BME280;4275;42.854;23.222;2023-08-21T06:04:27;42617.09;;;-141.02;74.39
8477;BME280;4275;42.854;23.222;2023-08-21T06:06:54;42620.94;;;-141.02;76.58
8477;BME280;4275;42.854;23.222;2023-08-21T06:09:21;42592.13;;;-141.02;78.09
8477;BME280;4275;42.854;23.222;2023-08-21T06:11:48;42620.94;;;-141.02;79.16
8477;BME280;4275;42.854;23.222;2023-08-21T06:14:14;42653.56;;;-141.02;79.77
8477;BME280;4275;42.854;23.222;2023-08-21T06:16:43;42642.03;;;-141.02;79.27
8477;BME280;4275;42.854;23.222;2023-08-21T06:19:10;42636.28;;;-141.02;79.02
8477;BME280;4275;42.854;23.222;2023-08-21T06:21:37;42680.44;;;-141.02;78.02
8477;BME280;4275;42.854;23.222;2023-08-21T06:24:04;42674.69;;;-141.02;77.50
8477;BME280;4275;42.854;23.222;2023-08-21T06:26:31;42697.72;;;-141.02;77.05
8477;BME280;4275;42.854;23.222;2023-08-21T06:28:58;42703.47;;;-141.02;76.25
8477;BME280;4275;42.854;23.222;2023-08-21T06:31:25;42667.00;;;-141.02;77.15
8477;BME280;4275;42.854;23.222;2023-08-21T06:33:53;42686.19;;;-141.02;77.35
8477;BME280;4275;42.854;23.222;2023-08-21T06:36:20;42688.13;;;-141.02;76.64
8477;BME280;4275;42.854;23.222;2023-08-21T06:38:47;42691.97;;;-141.02;75.43
8477;BME280;4275;42.854;23.222;2023-08-21T06:41:14;42628.63;;;-141.02;75.20
8477;BME280;4275;42.854;23.222;2023-08-21T06:43:42;42647.81;;;-141.02;74.08
8477;BME280;4275;42.854;23.222;2023-08-21T06:46:09;42636.28;;;-141.02;73.37
8477;BME280;4275;42.854;23.222;2023-08-21T06:48:38;42709.25;;;-141.02;72.64
8477;BME280;4275;42.854;23.222;2023-08-21T06:51:07;42736.13;;;-141.02;70.56
8477;BME280;4275;42.854;23.222;2023-08-21T06:53:34;42755.31;;;-141.02;68.10
8477;BME280;4275;42.854;23.222;2023-08-21T06:56:01;42724.59;;;-141.02;66.59
8477;BME280;4275;42.854;23.222;2023-08-21T06:58:28;42766.81;;;-141.02;66.62
8477;BME280;4275;42.854;23.222;2023-08-21T07:00:55;42772.59;;;-141.02;65.96
8477;BME280;4275;42.854;23.222;2023-08-21T07:03:22;42789.88;;;-141.02;65.28
8477;BME280;4275;42.854;23.222;2023-08-21T07:05:53;42828.25;;;-141.02;65.33
8477;BME280;4275;42.854;23.222;2023-08-21T07:08:22;42843.63;;;-141.02;65.64
8477;BME280;4275;42.854;23.222;2023-08-21T07:10:49;42791.78;;;-141.02;63.44
8477;BME280;4275;42.854;23.222;2023-08-21T07:13:16;42855.13;;;-141.02;63.90
8477;BME280;4275;42.854;23.222;2023-08-21T07:15:43;42853.22;;;-141.02;61.39
8477;BME280;4275;42.854;23.222;2023-08-21T07:18:10;42924.25;;;-141.02;63.07
8477;BME280;4275;42.854;23.222;2023-08-21T07:20:37;42970.31;;;-141.02;62.14
8477;BME280;4275;42.854;23.222;2023-08-21T07:23:04;42981.84;;;-141.02;61.41
8477;BME280;4275;42.854;23.222;2023-08-21T07:25:33;43018.31;;;-141.02;60.30
8477;BME280;4275;42.854;23.222;2023-08-21T07:28:00;43002.97;;;-141.02;59.81
8477;BME280;4275;42.854;23.222;2023-08-21T07:30:27;43072.06;;;-141.02;59.92
8477;BME280;4275;42.854;23.222;2023-08-21T07:32:54;43029.84;;;-141.02;58.06
8477;BME280;4275;42.854;23.222;2023-08-21T07:35:21;43010.63;;;-141.02;58.24
8477;BME280;4275;42.854;23.222;2023-08-21T07:37:48;43024.06;;;-141.02;57.81
8477;BME280;4275;42.854;23.222;2023-08-21T07:40:15;43116.22;;;-141.02;57.67
8477;BME280;4275;42.854;23.222;2023-08-21T07:42:43;43156.56;;;-141.02;55.99
8477;BME280;4275;42.854;23.222;2023-08-21T07:45:10;43262.16;;;-141.02;56.04
8477;BME280;4275;42.854;23.222;2023-08-21T07:47:37;43306.31;;;-141.02;55.06
8477;BME280;4275;42.854;23.222;2023-08-21T07:50:05;43377.34;;;-141.02;54.92
8477;BME280;4275;42.854;23.222;2023-08-21T07:52:33;43404.22;;;-141.02;54.05
8477;BME280;4275;42.854;23.222;2023-08-21T07:55:00;43350.47;;;-141.02;54.94
8477;BME280;4275;42.854;23.222;2023-08-21T07:57:28;43408.06;;;-141.02;54.24
8477;BME280;4275;42.854;23.222;2023-08-21T07:59:57;43450.31;;;-141.02;53.80
8477;BME280;4275;42.854;23.222;2023-08-21T08:02:24;43611.59;;;-141.02;53.18
8477;BME280;4275;42.854;23.222;2023-08-21T08:04:51;43607.75;;;-141.02;52.85
8477;BME280;4275;42.854;23.222;2023-08-21T08:07:19;43530.97;;;-141.02;52.56
8477;BME280;4275;42.854;23.222;2023-08-21T08:09:46;43659.59;;;-141.02;53.34
8477;BME280;4275;42.854;23.222;2023-08-21T08:12:13;43707.63;;;-141.02;51.20
8477;BME280;4275;42.854;23.222;2023-08-21T08:14:40;43805.56;;;-141.02;51.03
8477;BME280;4275;42.854;23.222;2023-08-21T08:17:09;43815.16;;;-141.02;51.25
8477;BME280;4275;42.854;23.222;2023-08-21T08:19:36;43738.34;;;-141.02;51.02
8477;BME280;4275;42.854;23.222;2023-08-21T08:22:03;43915.00;;;-141.02;51.75
8477;BME280;4275;42.854;23.222;2023-08-21T08:24:30;43815.16;;;-141.02;51.26
8477;BME280;4275;42.854;23.222;2023-08-21T08:26:56;43688.41;;;-141.02;51.36
8477;BME280;4275;42.854;23.222;2023-08-21T08:29:23;43680.72;;;-141.02;51.50
8477;BME280;4275;42.854;23.222;2023-08-21T08:31:50;43755.63;;;-141.02;51.88
8477;BME280;4275;42.854;23.222;2023-08-21T08:34:18;43772.91;;;-141.02;51.77
8477;BME280;4275;42.854;23.222;2023-08-21T08:36:46;43903.50;;;-141.02;51.84
8477;BME280;4275;42.854;23.222;2023-08-21T08:39:13;43957.25;;;-141.02;50.28
8477;BME280;4275;42.854;23.222;2023-08-21T08:41:47;44030.22;;;-141.02;50.12
8477;BME280;4275;42.854;23.222;2023-08-21T08:44:16;44176.19;;;-141.02;49.65
8477;BME280;4275;42.854;23.222;2023-08-21T08:46:43;44251.09;;;-141.02;48.85
8477;BME280;4275;42.854;23.222;2023-08-21T08:49:10;44149.31;;;-141.02;48.90
8477;BME280;4275;42.854;23.222;2023-08-21T08:51:39;43838.19;;;-141.02;46.72
8477;BME280;4275;42.854;23.222;2023-08-21T08:54:09;43964.94;;;-141.02;46.73
8477;BME280;4275;42.854;23.222;2023-08-21T08:56:37;44128.19;;;-141.02;46.92
8477;BME280;4275;42.854;23.222;2023-08-21T08:59:07;43991.81;;;-141.02;47.54
8477;BME280;4275;42.854;23.222;2023-08-21T09:01:34;43809.38;;;-141.02;49.56
8477;BME280;4275;42.854;23.222;2023-08-21T09:04:02;43895.81;;;-141.02;48.39
8477;BME280;4275;42.854;23.222;2023-08-21T09:06:29;43836.28;;;-141.02;48.10
8477;BME280;4275;42.854;23.222;2023-08-21T09:09:00;43863.16;;;-141.02;47.20
8477;BME280;4275;42.854;23.222;2023-08-21T09:11:27;43936.13;;;-141.02;46.86
8477;BME280;4275;42.854;23.222;2023-08-21T09:13:55;43907.31;;;-141.02;46.90
8477;BME280;4275;42.854;23.222;2023-08-21T09:16:23;43953.41;;;-141.02;46.76
8477;BME280;4275;42.854;23.222;2023-08-21T09:18:52;43945.72;;;-141.02;46.93
8477;BME280;4275;42.854;23.222;2023-08-21T09:21:20;43976.47;;;-141.02;47.61
8477;BME280;4275;42.854;23.222;2023-08-21T09:23:48;44032.16;;;-141.02;47.68
8477;BME280;4275;42.854;23.222;2023-08-21T09:26:20;44245.31;;;-141.02;46.59
8477;BME280;4275;42.854;23.222;2023-08-21T09:28:47;44181.94;;;-141.02;45.64
8477;BME280;4275;42.854;23.222;2023-08-21T09:31:15;43373.50;;;-141.02;45.37
8477;BME280;4275;42.854;23.222;2023-08-21T09:33:42;43062.47;;;-141.02;46.41
8477;BME280;4275;42.854;23.222;2023-08-21T09:36:09;43281.34;;;-141.02;47.37
8477;BME280;4275;42.854;23.222;2023-08-21T09:38:38;42945.38;;;-141.02;48.41
8477;BME280;4275;42.854;23.222;2023-08-21T09:41:06;42949.19;;;-141.02;49.14
8477;BME280;4275;42.854;23.222;2023-08-21T09:43:41;42974.16;;;-141.02;48.89
8477;BME280;4275;42.854;23.222;2023-08-21T09:46:08;42870.50;;;-141.02;48.97
8477;BME280;4275;42.854;23.222;2023-08-21T09:48:36;42824.41;;;-141.02;49.03
8477;BME280;4275;42.854;23.222;2023-08-21T09:51:04;42851.28;;;-141.02;50.02
8477;BME280;4275;42.854;23.222;2023-08-21T09:53:31;42828.25;;;-141.02;49.63
8477;BME280;4275;42.854;23.222;2023-08-21T09:56:00;43584.72;;;-141.02;49.30
8477;BME280;4275;42.854;23.222;2023-08-21T09:58:28;43682.66;;;-141.02;48.35
8477;BME280;4275;42.854;23.222;2023-08-21T10:00:58;43112.41;;;-141.02;47.97
8477;BME280;4275;42.854;23.222;2023-08-21T10:03:26;43661.53;;;-141.02;47.98
8477;BME280;4275;42.854;23.222;2023-08-21T10:05:54;43020.25;;;-141.02;47.52
8477;BME280;4275;42.854;23.222;2023-08-21T10:08:24;43744.09;;;-141.02;47.15
8477;BME280;4275;42.854;23.222;2023-08-21T10:10:52;43746.03;;;-141.02;46.69
8477;BME280;4275;42.854;23.222;2023-08-21T10:13:19;44160.81;;;-141.02;45.40
8477;BME280;4275;42.854;23.222;2023-08-21T10:15:46;43995.66;;;-141.02;44.93
8477;BME280;4275;42.854;23.222;2023-08-21T10:18:19;43173.81;;;-141.02;46.03
8477;BME280;4275;42.854;23.222;2023-08-21T10:20:47;43100.88;;;-141.02;45.54
8477;BME280;4275;42.854;23.222;2023-08-21T10:23:24;42989.53;;;-141.02;44.90
8477;BME280;4275;42.854;23.222;2023-08-21T10:25:54;43097.03;;;-141.02;45.80
8477;BME280;4275;42.854;23.222;2023-08-21T10:28:21;43711.47;;;-141.02;46.53
8477;BME280;4275;42.854;23.222;2023-08-21T10:30:48;43893.88;;;-141.02;46.21
8477;BME280;4275;42.854;23.222;2023-08-21T10:33:16;43289.03;;;-141.02;45.06
8477;BME280;4275;42.854;23.222;2023-08-21T10:35:46;44014.88;;;-141.02;44.83
8477;BME280;4275;42.854;23.222;2023-08-21T10:38:14;44226.13;;;-141.02;43.51
8477;BME280;4275;42.854;23.222;2023-08-21T10:41:04;43325.50;;;-141.02;44.15
8477;BME280;4275;42.854;23.222;2023-08-21T10:43:39;43266.00;;;-141.02;44.41
8477;BME280;4275;42.854;23.222;2023-08-21T10:46:07;43801.72;;;-141.02;44.10
8477;BME280;4275;42.854;23.222;2023-08-21T10:48:34;43146.94;;;-141.02;44.29
8477;BME280;4275;42.854;23.222;2023-08-21T10:51:04;43400.38;;;-141.02;45.40
8477;BME280;4275;42.854;23.222;2023-08-21T10:53:32;44176.19;;;-141.02;45.28
8477;BME280;4275;42.854;23.222;2023-08-21T10:56:01;44349.03;;;-141.02;44.25
8477;BME280;4275;42.854;23.222;2023-08-21T10:58:28;44523.81;;;-141.02;44.03
8477;BME280;4275;42.854;23.222;2023-08-21T11:00:58;43530.97;;;-141.02;43.16
8477;BME280;4275;42.854;23.222;2023-08-21T11:03:25;44502.69;;;-141.02;43.42
8477;BME280;4275;42.854;23.222;2023-08-21T11:06:04;44304.88;;;-141.02;42.76
8477;BME280;4275;42.854;23.222;2023-08-21T11:08:32;43250.63;;;-141.02;42.79
8477;BME280;4275;42.854;23.222;2023-08-21T11:10:59;43120.06;;;-141.02;43.71
8477;BME280;4275;42.854;23.222;2023-08-21T11:13:27;43016.41;;;-141.02;44.65
8477;BME280;4275;42.854;23.222;2023-08-21T11:16:00;43673.06;;;-141.02;44.12
8477;BME280;4275;42.854;23.222;2023-08-21T11:18:31;43903.50;;;-141.02;43.86
8477;BME280;4275;42.854;23.222;2023-08-21T11:21:07;43452.22;;;-141.02;43.07
8477;BME280;4275;42.854;23.222;2023-08-21T11:23:36;43857.41;;;-141.02;43.22
8477;BME280;4275;42.854;23.222;2023-08-21T11:26:04;43903.50;;;-141.02;43.45
8477;BME280;4275;42.854;23.222;2023-08-21T11:28:32;43949.56;;;-141.02;43.18
8477;BME280;4275;42.854;23.222;2023-08-21T11:30:59;43903.50;;;-141.02;42.15
8477;BME280;4275;42.854;23.222;2023-08-21T11:33:26;43903.50;;;-141.02;41.43
8477;BME280;4275;42.854;23.222;2023-08-21T11:35:55;44009.09;;;-141.02;40.75
8477;BME280;4275;42.854;23.222;2023-08-21T11:38:25;44147.38;;;-141.02;41.11
8477;BME280;4275;42.854;23.222;2023-08-21T11:40:53;44308.72;;;-141.02;40.80
8477;BME280;4275;42.854;23.222;2023-08-21T11:43:20;44141.63;;;-141.02;42.21
8477;BME280;4275;42.854;23.222;2023-08-21T11:45:47;44206.91;;;-141.02;43.19
8477;BME280;4275;42.854;23.222;2023-08-21T11:48:15;44414.34;;;-141.02;43.10
8477;BME280;4275;42.854;23.222;2023-08-21T11:50:42;44231.88;;;-141.02;41.37
8477;BME280;4275;42.854;23.222;2023-08-21T11:53:09;44139.69;;;-141.02;42.28
8477;BME280;4275;42.854;23.222;2023-08-21T11:55:38;44130.09;;;-141.02;42.98
8477;BME280;4275;42.854;23.222;2023-08-21T11:58:05;44149.31;;;-141.02;42.27
8477;BME280;4275;42.854;23.222;2023-08-21T12:00:32;43233.34;;;-141.02;43.47
8477;BME280;4275;42.854;23.222;2023-08-21T12:03:01;43085.50;;;-141.02;44.45
8477;BME280;4275;42.854;23.222;2023-08-21T12:05:29;43650.00;;;-141.02;43.94
8477;BME280;4275;42.854;23.222;2023-08-21T12:07:56;43790.19;;;-141.02;43.64
8477;BME280;4275;42.854;23.222;2023-08-21T12:10:24;43834.34;;;-141.02;43.68
8477;BME280;4275;42.854;23.222;2023-08-21T12:12:52;44020.63;;;-141.02;43.07
8477;BME280;4275;42.854;23.222;2023-08-21T12:15:20;44007.19;;;-141.02;41.72
8477;BME280;4275;42.854;23.222;2023-08-21T12:17:46;43949.56;;;-141.02;41.16
8477;BME280;4275;42.854;23.222;2023-08-21T12:20:13;44274.13;;;-141.02;40.20
8477;BME280;4275;42.854;23.222;2023-08-21T12:22:40;44281.81;;;-141.02;40.94
8477;BME280;4275;42.854;23.222;2023-08-21T12:25:08;44210.75;;;-141.02;41.60
8477;BME280;4275;42.854;23.222;2023-08-21T12:27:35;44107.06;;;-141.02;42.09
8477;BME280;4275;42.854;23.222;2023-08-21T12:30:05;43749.88;;;-141.02;43.57
8477;BME280;4275;42.854;23.222;2023-08-21T12:32:32;43244.88;;;-141.02;43.92
8477;BME280;4275;42.854;23.222;2023-08-21T12:34:59;43131.59;;;-141.02;44.55
8477;BME280;4275;42.854;23.222;2023-08-21T12:37:25;43043.28;;;-141.02;44.95
8477;BME280;4275;42.854;23.222;2023-08-21T12:39:54;43047.13;;;-141.02;45.11
8477;BME280;4275;42.854;23.222;2023-08-21T12:42:21;43054.78;;;-141.02;45.07
8477;BME280;4275;42.854;23.222;2023-08-21T12:44:48;43066.31;;;-141.02;45.36
8477;BME280;4275;42.854;23.222;2023-08-21T12:47:16;43097.03;;;-141.02;46.29
8477;BME280;4275;42.854;23.222;2023-08-21T12:49:43;43168.06;;;-141.02;46.03
8477;BME280;4275;42.854;23.222;2023-08-21T12:52:10;43043.28;;;-141.02;46.33
8477;BME280;4275;42.854;23.222;2023-08-21T12:54:38;42979.91;;;-141.02;46.15
8477;BME280;4275;42.854;23.222;2023-08-21T12:57:05;42989.53;;;-141.02;46.45
8477;BME280;4275;42.854;23.222;2023-08-21T12:59:33;43607.75;;;-141.02;46.34
8477;BME280;4275;42.854;23.222;2023-08-21T13:01:59;43657.69;;;-141.02;45.37
8477;BME280;4275;42.854;23.222;2023-08-21T13:04:28;43734.50;;;-141.02;44.79
8477;BME280;4275;42.854;23.222;2023-08-21T13:06:55;43926.53;;;-141.02;44.79
8477;BME280;4275;42.854;23.222;2023-08-21T13:09:23;43872.75;;;-141.02;44.46
8477;BME280;4275;42.854;23.222;2023-08-21T13:11:50;43911.16;;;-141.02;44.16
8477;BME280;4275;42.854;23.222;2023-08-21T13:14:17;43870.84;;;-141.02;43.98
8477;BME280;4275;42.854;23.222;2023-08-21T13:16:44;43941.91;;;-141.02;44.15
8477;BME280;4275;42.854;23.222;2023-08-21T13:19:11;43930.38;;;-141.02;45.00
8477;BME280;4275;42.854;23.222;2023-08-21T13:21:40;43870.84;;;-141.02;44.75
8477;BME280;4275;42.854;23.222;2023-08-21T13:24:06;43880.44;;;-141.02;44.26
8477;BME280;4275;42.854;23.222;2023-08-21T13:26:33;43909.25;;;-141.02;43.67
8477;BME280;4275;42.854;23.222;2023-08-21T13:29:00;43991.81;;;-141.02;43.96
8477;BME280;4275;42.854;23.222;2023-08-21T13:31:27;43972.63;;;-141.02;44.57
8477;BME280;4275;42.854;23.222;2023-08-21T13:33:55;43951.50;;;-141.02;44.38
8477;BME280;4275;42.854;23.222;2023-08-21T13:36:22;44068.63;;;-141.02;43.17
8477;BME280;4275;42.854;23.222;2023-08-21T13:38:50;43978.38;;;-141.02;43.54
8477;BME280;4275;42.854;23.222;2023-08-21T13:41:17;43861.25;;;-141.02;43.37